sensor_id;sensor_type;location;lat;lon;timestamp;temperature;humidity
78212;SHT31;67490;52.086;5.122;2023-04-29T00:01:38;13.93;70.97
78212;SHT31;67490;52.086;5.122;2023-04-29T00:04:22;13.96;70.63
78212;SHT31;67490;52.086;5.122;2023-04-29T00:07:07;13.96;70.38
78212;SHT31;67490;52.086;5.122;2023-04-29T00:09:52;13.93;70.63
78212;SHT31;67490;52.086;5.122;2023-04-29T00:12:36;13.87;70.21
78212;SHT31;67490;52.086;5.122;2023-04-29T00:15:21;13.84;70.43
78212;SHT31;67490;52.086;5.122;2023-04-29T00:18:07;13.83;70.37
78212;SHT31;67490;52.086;5.122;2023-04-29T00:20:52;13.79;70.43
78212;SHT31;67490;52.086;5.122;2023-04-29T00:23:36;13.79;70.26
78212;SHT31;67490;52.086;5.122;2023-04-29T00:26:21;13.79;70.12
78212;SHT31;67490;52.086;5.122;2023-04-29T00:29:05;13.76;70.21
78212;SHT31;67490;52.086;5.122;2023-04-29T00:31:50;13.76;69.65
78212;SHT31;67490;52.086;5.122;2023-04-29T00:34:36;13.74;70.14
78212;SHT31;67490;52.086;5.122;2023-04-29T00:37:21;13.79;70.03
78212;SHT31;67490;52.086;5.122;2023-04-29T00:40:06;13.86;69.50
78212;SHT31;67490;52.086;5.122;2023-04-29T00:42:51;13.76;69.25
78212;SHT31;67490;52.086;5.122;2023-04-29T00:45:36;13.77;69.26
78212;SHT31;67490;52.086;5.122;2023-04-29T00:48:20;13.69;69.24
78212;SHT31;67490;52.086;5.122;2023-04-29T00:51:07;13.76;69.17
78212;SHT31;67490;52.086;5.122;2023-04-29T00:53:52;13.79;68.89
78212;SHT31;67490;52.086;5.122;2023-04-29T00:56:38;13.70;69.10
78212;SHT31;67490;52.086;5.122;2023-04-29T00:59:27;13.71;69.12
78212;SHT31;67490;52.086;5.122;2023-04-29T01:02:15;13.62;68.96
78212;SHT31;67490;52.086;5.122;2023-04-29T01:05:01;13.62;69.14
78212;SHT31;67490;52.086;5.122;2023-04-29T01:07:58;13.65;68.46
78212;SHT31;67490;52.086;5.122;2023-04-29T01:10:53;13.58;68.75
78212;SHT31;67490;52.086;5.122;2023-04-29T01:13:42;13.56;68.97
78212;SHT31;67490;52.086;5.122;2023-04-29T01:16:36;13.56;69.33
78212;SHT31;67490;52.086;5.122;2023-04-29T01:19:38;13.56;69.11
78212;SHT31;67490;52.086;5.122;2023-04-29T01:22:23;13.60;68.97
78212;SHT31;67490;52.086;5.122;2023-04-29T01:25:09;13.63;68.72
78212;SHT31;67490;52.086;5.122;2023-04-29T01:28:04;13.60;69.03
78212;SHT31;67490;52.086;5.122;2023-04-29T01:30:57;13.63;69.23
78212;SHT31;67490;52.086;5.122;2023-04-29T01:33:52;13.63;68.91
78212;SHT31;67490;52.086;5.122;2023-04-29T01:36:53;13.73;68.58
78212;SHT31;67490;52.086;5.122;2023-04-29T01:39:54;13.79;68.31
78212;SHT31;67490;52.086;5.122;2023-04-29T01:42:45;13.73;68.44
78212;SHT31;67490;52.086;5.122;2023-04-29T01:45:31;13.69;68.23
78212;SHT31;67490;52.086;5.122;2023-04-29T01:48:18;13.77;67.97
78212;SHT31;67490;52.086;5.122;2023-04-29T01:51:02;13.83;67.62
78212;SHT31;67490;52.086;5.122;2023-04-29T01:53:48;13.86;67.50
78212;SHT31;67490;52.086;5.122;2023-04-29T01:56:33;13.84;67.60
78212;SHT31;67490;52.086;5.122;2023-04-29T01:59:19;13.89;67.46
78212;SHT31;67490;52.086;5.122;2023-04-29T02:02:04;13.79;67.25
78212;SHT31;67490;52.086;5.122;2023-04-29T02:04:48;13.73;67.55
78212;SHT31;67490;52.086;5.122;2023-04-29T02:07:33;13.69;67.60
78212;SHT31;67490;52.086;5.122;2023-04-29T02:10:18;13.60;68.04
78212;SHT31;67490;52.086;5.122;2023-04-29T02:13:03;13.62;67.93
78212;SHT31;67490;52.086;5.122;2023-04-29T02:15:49;13.52;68.52
78212;SHT31;67490;52.086;5.122;2023-04-29T02:18:33;13.31;69.06
78212;SHT31;67490;52.086;5.122;2023-04-29T02:21:17;13.35;69.00
78212;SHT31;67490;52.086;5.122;2023-04-29T02:24:02;13.36;68.62
78212;SHT31;67490;52.086;5.122;2023-04-29T02:26:47;13.52;68.74
78212;SHT31;67490;52.086;5.122;2023-04-29T02:29:31;13.65;68.52
78212;SHT31;67490;52.086;5.122;2023-04-29T02:32:17;13.65;67.45
78212;SHT31;67490;52.086;5.122;2023-04-29T02:35:04;13.55;67.56
78212;SHT31;67490;52.086;5.122;2023-04-29T02:37:49;13.55;67.95
78212;SHT31;67490;52.086;5.122;2023-04-29T02:40:40;13.29;67.87
78212;SHT31;67490;52.086;5.122;2023-04-29T02:43:24;13.49;68.29
78212;SHT31;67490;52.086;5.122;2023-04-29T02:46:09;13.66;68.11
78212;SHT31;67490;52.086;5.122;2023-04-29T02:48:55;13.50;67.62
78212;SHT31;67490;52.086;5.122;2023-04-29T02:51:40;13.65;67.95
78212;SHT31;67490;52.086;5.122;2023-04-29T02:54:25;13.67;67.75
78212;SHT31;67490;52.086;5.122;2023-04-29T02:57:09;13.62;67.98
78212;SHT31;67490;52.086;5.122;2023-04-29T02:59:54;13.71;67.95
78212;SHT31;67490;52.086;5.122;2023-04-29T03:02:39;13.83;67.87
78212;SHT31;67490;52.086;5.122;2023-04-29T03:05:25;13.81;67.77
78212;SHT31;67490;52.086;5.122;2023-04-29T03:08:10;13.70;67.92
78212;SHT31;67490;52.086;5.122;2023-04-29T03:10:54;13.70;68.24
78212;SHT31;67490;52.086;5.122;2023-04-29T03:13:39;13.90;67.62
78212;SHT31;67490;52.086;5.122;2023-04-29T03:16:23;13.91;67.94
78212;SHT31;67490;52.086;5.122;2023-04-29T03:19:08;13.76;67.68
78212;SHT31;67490;52.086;5.122;2023-04-29T03:21:55;13.73;68.11
78212;SHT31;67490;52.086;5.122;2023-04-29T03:24:39;13.79;68.47
78212;SHT31;67490;52.086;5.122;2023-04-29T03:27:24;13.80;67.75
78212;SHT31;67490;52.086;5.122;2023-04-29T03:30:08;13.74;67.87
78212;SHT31;67490;52.086;5.122;2023-04-29T03:32:53;13.73;68.16
78212;SHT31;67490;52.086;5.122;2023-04-29T03:35:37;13.76;68.11
78212;SHT31;67490;52.086;5.122;2023-04-29T03:38:24;13.77;67.64
78212;SHT31;67490;52.086;5.122;2023-04-29T03:41:09;13.79;67.60
78212;SHT31;67490;52.086;5.122;2023-04-29T03:43:53;13.70;67.70
78212;SHT31;67490;52.086;5.122;2023-04-29T03:46:39;13.87;68.04
78212;SHT31;67490;52.086;5.122;2023-04-29T03:49:24;13.94;67.77
78212;SHT31;67490;52.086;5.122;2023-04-29T03:52:09;13.98;67.44
78212;SHT31;67490;52.086;5.122;2023-04-29T03:54:56;13.93;66.82
78212;SHT31;67490;52.086;5.122;2023-04-29T03:57:41;13.97;67.59
78212;SHT31;67490;52.086;5.122;2023-04-29T04:00:26;13.73;67.41
78212;SHT31;67490;52.086;5.122;2023-04-29T04:03:14;13.69;68.32
78212;SHT31;67490;52.086;5.122;2023-04-29T04:05:58;13.58;68.27
78212;SHT31;67490;52.086;5.122;2023-04-29T04:08:43;13.11;68.78
78212;SHT31;67490;52.086;5.122;2023-04-29T04:11:29;13.22;69.03
78212;SHT31;67490;52.086;5.122;2023-04-29T04:14:13;13.40;68.51
78212;SHT31;67490;52.086;5.122;2023-04-29T04:16:57;13.36;68.14
78212;SHT31;67490;52.086;5.122;2023-04-29T04:19:42;13.14;69.14
78212;SHT31;67490;52.086;5.122;2023-04-29T04:22:26;13.04;69.23
78212;SHT31;67490;52.086;5.122;2023-04-29T04:25:11;13.07;69.83
78212;SHT31;67490;52.086;5.122;2023-04-29T04:27:57;13.23;69.45
78212;SHT31;67490;52.086;5.122;2023-04-29T04:30:41;13.38;69.07
78212;SHT31;67490;52.086;5.122;2023-04-29T04:33:26;13.38;69.06
78212;SHT31;67490;52.086;5.122;2023-04-29T04:36:11;13.35;69.58
78212;SHT31;67490;52.086;5.122;2023-04-29T04:38:55;13.34;69.50
78212;SHT31;67490;52.086;5.122;2023-04-29T04:41:39;13.35;69.41
78212;SHT31;67490;52.086;5.122;2023-04-29T04:44:25;12.95;70.79
78212;SHT31;67490;52.086;5.122;2023-04-29T04:47:10;12.92;71.27
78212;SHT31;67490;52.086;5.122;2023-04-29T04:49:54;13.00;71.38
78212;SHT31;67490;52.086;5.122;2023-04-29T04:52:39;12.67;71.56
78212;SHT31;67490;52.086;5.122;2023-04-29T04:55:23;12.83;71.89
78212;SHT31;67490;52.086;5.122;2023-04-29T04:58:08;13.02;71.21
78212;SHT31;67490;52.086;5.122;2023-04-29T05:00:54;12.95;70.86
78212;SHT31;67490;52.086;5.122;2023-04-29T05:03:38;13.15;71.09
78212;SHT31;67490;52.086;5.122;2023-04-29T05:06:23;13.32;69.93
78212;SHT31;67490;52.086;5.122;2023-04-29T05:09:07;13.16;69.83
78212;SHT31;67490;52.086;5.122;2023-04-29T05:11:52;13.21;69.53
78212;SHT31;67490;52.086;5.122;2023-04-29T05:14:37;13.35;69.38
78212;SHT31;67490;52.086;5.122;2023-04-29T05:17:23;13.48;69.11
78212;SHT31;67490;52.086;5.122;2023-04-29T05:20:08;13.62;68.87
78212;SHT31;67490;52.086;5.122;2023-04-29T05:22:52;13.66;68.90
78212;SHT31;67490;52.086;5.122;2023-04-29T05:25:37;13.77;68.76
78212;SHT31;67490;52.086;5.122;2023-04-29T05:28:21;13.74;68.62
78212;SHT31;67490;52.086;5.122;2023-04-29T05:31:06;13.62;69.45
78212;SHT31;67490;52.086;5.122;2023-04-29T05:33:52;13.58;69.39
78212;SHT31;67490;52.086;5.122;2023-04-29T05:36:36;13.48;70.04
78212;SHT31;67490;52.086;5.122;2023-04-29T05:39:21;13.59;70.16
78212;SHT31;67490;52.086;5.122;2023-04-29T05:42:06;13.71;69.49
78212;SHT31;67490;52.086;5.122;2023-04-29T05:44:50;13.59;69.52
78212;SHT31;67490;52.086;5.122;2023-04-29T05:47:35;13.58;69.77
78212;SHT31;67490;52.086;5.122;2023-04-29T05:50:21;13.74;69.14
78212;SHT31;67490;52.086;5.122;2023-04-29T05:53:06;13.81;69.03
78212;SHT31;67490;52.086;5.122;2023-04-29T05:55:50;13.59;69.27
78212;SHT31;67490;52.086;5.122;2023-04-29T05:58:35;13.43;70.08
78212;SHT31;67490;52.086;5.122;2023-04-29T06:01:19;13.43;69.47
78212;SHT31;67490;52.086;5.122;2023-04-29T06:04:03;13.00;70.78
78212;SHT31;67490;52.086;5.122;2023-04-29T06:06:50;13.18;70.37
78212;SHT31;67490;52.086;5.122;2023-04-29T06:09:34;13.43;70.42
78212;SHT31;67490;52.086;5.122;2023-04-29T06:12:19;13.50;69.37
78212;SHT31;67490;52.086;5.122;2023-04-29T06:15:04;13.19;70.49
78212;SHT31;67490;52.086;5.122;2023-04-29T06:17:49;13.46;69.69
78212;SHT31;67490;52.086;5.122;2023-04-29T06:20:33;13.42;69.59
78212;SHT31;67490;52.086;5.122;2023-04-29T06:23:19;13.59;68.91
78212;SHT31;67490;52.086;5.122;2023-04-29T06:26:03;13.43;68.72
78212;SHT31;67490;52.086;5.122;2023-04-29T06:28:48;13.55;68.99
78212;SHT31;67490;52.086;5.122;2023-04-29T06:31:32;13.48;68.67
78212;SHT31;67490;52.086;5.122;2023-04-29T06:34:17;13.53;68.93
78212;SHT31;67490;52.086;5.122;2023-04-29T06:37:02;13.65;68.37
78212;SHT31;67490;52.086;5.122;2023-04-29T06:39:49;13.76;68.14
78212;SHT31;67490;52.086;5.122;2023-04-29T06:42:33;13.32;68.99
78212;SHT31;67490;52.086;5.122;2023-04-29T06:45:18;13.74;68.77
78212;SHT31;67490;52.086;5.122;2023-04-29T06:48:03;14.22;67.39
78212;SHT31;67490;52.086;5.122;2023-04-29T06:50:48;14.42;66.56
78212;SHT31;67490;52.086;5.122;2023-04-29T06:53:33;14.79;65.25
78212;SHT31;67490;52.086;5.122;2023-04-29T06:56:19;14.75;64.84
78212;SHT31;67490;52.086;5.122;2023-04-29T06:59:03;14.20;65.93
78212;SHT31;67490;52.086;5.122;2023-04-29T07:01:48;14.04;66.90
78212;SHT31;67490;52.086;5.122;2023-04-29T07:04:33;14.14;66.54
78212;SHT31;67490;52.086;5.122;2023-04-29T07:07:17;14.04;66.92
78212;SHT31;67490;52.086;5.122;2023-04-29T07:10:02;13.98;66.47
78212;SHT31;67490;52.086;5.122;2023-04-29T07:12:48;14.28;66.69
78212;SHT31;67490;52.086;5.122;2023-04-29T07:15:34;14.48;65.61
78212;SHT31;67490;52.086;5.122;2023-04-29T07:18:19;15.09;64.20
78212;SHT31;67490;52.086;5.122;2023-04-29T07:21:03;16.12;60.87
78212;SHT31;67490;52.086;5.122;2023-04-29T07:23:48;16.81;59.24
78212;SHT31;67490;52.086;5.122;2023-04-29T07:26:32;16.56;59.34
78212;SHT31;67490;52.086;5.122;2023-04-29T07:29:18;16.75;58.33
78212;SHT31;67490;52.086;5.122;2023-04-29T07:32:03;16.53;58.38
78212;SHT31;67490;52.086;5.122;2023-04-29T07:34:47;16.59;58.71
78212;SHT31;67490;52.086;5.122;2023-04-29T07:37:32;16.77;57.89
78212;SHT31;67490;52.086;5.122;2023-04-29T07:40:17;17.08;56.76
78212;SHT31;67490;52.086;5.122;2023-04-29T07:43:01;17.08;56.92
78212;SHT31;67490;52.086;5.122;2023-04-29T07:45:50;16.64;56.75
78212;SHT31;67490;52.086;5.122;2023-04-29T07:48:36;16.08;59.32
78212;SHT31;67490;52.086;5.122;2023-04-29T07:51:21;15.72;59.05
78212;SHT31;67490;52.086;5.122;2023-04-29T07:54:06;15.69;60.46
78212;SHT31;67490;52.086;5.122;2023-04-29T07:56:50;15.78;59.78
78212;SHT31;67490;52.086;5.122;2023-04-29T07:59:34;16.10;59.24
78212;SHT31;67490;52.086;5.122;2023-04-29T08:02:20;16.30;59.35
78212;SHT31;67490;52.086;5.122;2023-04-29T08:05:05;16.02;58.82
78212;SHT31;67490;52.086;5.122;2023-04-29T08:07:50;16.10;58.61
78212;SHT31;67490;52.086;5.122;2023-04-29T08:10:37;16.06;59.23
78212;SHT31;67490;52.086;5.122;2023-04-29T08:13:24;16.88;58.72
78212;SHT31;67490;52.086;5.122;2023-04-29T08:16:09;17.18;55.90
78212;SHT31;67490;52.086;5.122;2023-04-29T08:18:55;16.87;56.70
78212;SHT31;67490;52.086;5.122;2023-04-29T08:21:39;16.10;58.57
78212;SHT31;67490;52.086;5.122;2023-04-29T08:24:24;16.04;59.05
78212;SHT31;67490;52.086;5.122;2023-04-29T08:27:09;16.87;57.15
78212;SHT31;67490;52.086;5.122;2023-04-29T08:29:53;16.50;57.16
78212;SHT31;67490;52.086;5.122;2023-04-29T08:32:39;17.15;56.20
78212;SHT31;67490;52.086;5.122;2023-04-29T08:35:25;17.83;54.26
78212;SHT31;67490;52.086;5.122;2023-04-29T08:38:09;18.10;53.56
78212;SHT31;67490;52.086;5.122;2023-04-29T08:40:54;18.11;54.68
78212;SHT31;67490;52.086;5.122;2023-04-29T08:43:39;18.55;52.47
78212;SHT31;67490;52.086;5.122;2023-04-29T08:46:25;17.94;52.70
78212;SHT31;67490;52.086;5.122;2023-04-29T08:49:10;17.01;54.48
78212;SHT31;67490;52.086;5.122;2023-04-29T08:51:56;16.70;55.71
78212;SHT31;67490;52.086;5.122;2023-04-29T08:54:41;16.87;54.78
78212;SHT31;67490;52.086;5.122;2023-04-29T08:57:28;17.72;54.83
78212;SHT31;67490;52.086;5.122;2023-04-29T09:00:13;18.79;51.21
78212;SHT31;67490;52.086;5.122;2023-04-29T09:03:00;19.67;48.33
78212;SHT31;67490;52.086;5.122;2023-04-29T09:05:48;19.53;48.76
78212;SHT31;67490;52.086;5.122;2023-04-29T09:08:36;16.89;54.26
78212;SHT31;67490;52.086;5.122;2023-04-29T09:11:20;16.73;54.73
78212;SHT31;67490;52.086;5.122;2023-04-29T09:14:06;16.71;56.22
78212;SHT31;67490;52.086;5.122;2023-04-29T09:16:52;16.74;55.72
78212;SHT31;67490;52.086;5.122;2023-04-29T09:19:36;17.15;55.31
78212;SHT31;67490;52.086;5.122;2023-04-29T09:22:21;17.28;53.90
78212;SHT31;67490;52.086;5.122;2023-04-29T09:25:13;17.93;51.82
78212;SHT31;67490;52.086;5.122;2023-04-29T09:27:58;17.32;52.34
78212;SHT31;67490;52.086;5.122;2023-04-29T09:30:57;16.81;53.63
78212;SHT31;67490;52.086;5.122;2023-04-29T09:33:52;17.05;54.33
78212;SHT31;67490;52.086;5.122;2023-04-29T09:36:42;16.91;53.89
78212;SHT31;67490;52.086;5.122;2023-04-29T09:39:38;16.88;54.36
78212;SHT31;67490;52.086;5.122;2023-04-29T09:42:24;17.25;53.89
78212;SHT31;67490;52.086;5.122;2023-04-29T09:45:08;17.36;53.36
78212;SHT31;67490;52.086;5.122;2023-04-29T09:48:00;17.03;53.20
78212;SHT31;67490;52.086;5.122;2023-04-29T09:50:58;16.53;55.30
78212;SHT31;67490;52.086;5.122;2023-04-29T09:53:44;17.79;53.14
78212;SHT31;67490;52.086;5.122;2023-04-29T09:56:48;17.98;50.00
78212;SHT31;67490;52.086;5.122;2023-04-29T09:59:36;17.35;51.02
78212;SHT31;67490;52.086;5.122;2023-04-29T10:02:21;17.33;52.23
78212;SHT31;67490;52.086;5.122;2023-04-29T10:05:09;17.31;53.38
78212;SHT31;67490;52.086;5.122;2023-04-29T10:07:54;17.07;52.11
78212;SHT31;67490;52.086;5.122;2023-04-29T10:10:39;18.21;51.24
78212;SHT31;67490;52.086;5.122;2023-04-29T10:13:24;19.43;48.34
78212;SHT31;67490;52.086;5.122;2023-04-29T10:16:28;18.45;48.62
78212;SHT31;67490;52.086;5.122;2023-04-29T10:19:18;17.87;49.53
78212;SHT31;67490;52.086;5.122;2023-04-29T10:22:08;18.07;48.84
78212;SHT31;67490;52.086;5.122;2023-04-29T10:24:54;18.37;48.25
78212;SHT31;67490;52.086;5.122;2023-04-29T10:27:41;19.68;46.03
78212;SHT31;67490;52.086;5.122;2023-04-29T10:30:28;20.23;44.12
78212;SHT31;67490;52.086;5.122;2023-04-29T10:33:15;19.85;44.34
78212;SHT31;67490;52.086;5.122;2023-04-29T10:36:00;20.02;44.50
78212;SHT31;67490;52.086;5.122;2023-04-29T10:38:48;19.54;44.90
78212;SHT31;67490;52.086;5.122;2023-04-29T10:41:41;19.77;46.27
78212;SHT31;67490;52.086;5.122;2023-04-29T10:44:28;20.85;44.79
78212;SHT31;67490;52.086;5.122;2023-04-29T10:47:19;20.88;43.21
78212;SHT31;67490;52.086;5.122;2023-04-29T10:50:06;19.38;43.40
78212;SHT31;67490;52.086;5.122;2023-04-29T10:52:51;18.53;47.29
78212;SHT31;67490;52.086;5.122;2023-04-29T10:55:37;18.51;48.00
78212;SHT31;67490;52.086;5.122;2023-04-29T10:58:41;18.28;47.91
78212;SHT31;67490;52.086;5.122;2023-04-29T11:01:47;18.07;49.12
78212;SHT31;67490;52.086;5.122;2023-04-29T11:04:32;18.41;49.06
78212;SHT31;67490;52.086;5.122;2023-04-29T11:07:28;18.38;47.13
78212;SHT31;67490;52.086;5.122;2023-04-29T11:10:13;18.17;46.69
78212;SHT31;67490;52.086;5.122;2023-04-29T11:13:22;18.31;45.67
78212;SHT31;67490;52.086;5.122;2023-04-29T11:16:08;18.44;45.51
78212;SHT31;67490;52.086;5.122;2023-04-29T11:19:06;18.72;46.19
78212;SHT31;67490;52.086;5.122;2023-04-29T11:22:07;18.92;45.23
78212;SHT31;67490;52.086;5.122;2023-04-29T11:24:55;19.10;45.15
78212;SHT31;67490;52.086;5.122;2023-04-29T11:27:40;18.77;46.05
78212;SHT31;67490;52.086;5.122;2023-04-29T11:30:27;18.81;45.75
78212;SHT31;67490;52.086;5.122;2023-04-29T11:33:13;18.13;46.50
78212;SHT31;67490;52.086;5.122;2023-04-29T11:35:57;17.80;47.81
78212;SHT31;67490;52.086;5.122;2023-04-29T11:38:42;18.15;48.39
78212;SHT31;67490;52.086;5.122;2023-04-29T11:41:28;18.22;47.32
78212;SHT31;67490;52.086;5.122;2023-04-29T11:44:12;18.58;46.06
78212;SHT31;67490;52.086;5.122;2023-04-29T11:47:01;18.83;47.10
78212;SHT31;67490;52.086;5.122;2023-04-29T11:49:45;19.14;46.00
78212;SHT31;67490;52.086;5.122;2023-04-29T11:52:31;19.21;45.43
78212;SHT31;67490;52.086;5.122;2023-04-29T11:55:17;19.30;45.82
78212;SHT31;67490;52.086;5.122;2023-04-29T11:58:04;19.02;45.41
78212;SHT31;67490;52.086;5.122;2023-04-29T12:00:49;18.37;46.26
78212;SHT31;67490;52.086;5.122;2023-04-29T12:03:34;18.65;46.25
78212;SHT31;67490;52.086;5.122;2023-04-29T12:06:19;18.83;46.27
78212;SHT31;67490;52.086;5.122;2023-04-29T12:09:04;18.76;45.01
78212;SHT31;67490;52.086;5.122;2023-04-29T12:11:49;18.96;46.18
78212;SHT31;67490;52.086;5.122;2023-04-29T12:14:36;17.94;46.20
78212;SHT31;67490;52.086;5.122;2023-04-29T12:17:21;18.27;47.39
78212;SHT31;67490;52.086;5.122;2023-04-29T12:20:07;17.97;47.51
78212;SHT31;67490;52.086;5.122;2023-04-29T12:22:55;17.73;46.92
78212;SHT31;67490;52.086;5.122;2023-04-29T12:25:40;18.08;48.66
78212;SHT31;67490;52.086;5.122;2023-04-29T12:28:26;18.51;47.15
78212;SHT31;67490;52.086;5.122;2023-04-29T12:31:14;18.63;45.53
78212;SHT31;67490;52.086;5.122;2023-04-29T12:33:58;17.10;47.93
78212;SHT31;67490;52.086;5.122;2023-04-29T12:36:43;17.54;47.38
78212;SHT31;67490;52.086;5.122;2023-04-29T12:39:29;18.03;46.58
78212;SHT31;67490;52.086;5.122;2023-04-29T12:42:14;18.25;45.41
78212;SHT31;67490;52.086;5.122;2023-04-29T12:45:00;18.53;45.11
78212;SHT31;67490;52.086;5.122;2023-04-29T12:47:46;18.69;44.75
78212;SHT31;67490;52.086;5.122;2023-04-29T12:50:32;18.69;44.65
78212;SHT31;67490;52.086;5.122;2023-04-29T12:53:16;18.71;45.24
78212;SHT31;67490;52.086;5.122;2023-04-29T12:56:01;18.83;44.54
78212;SHT31;67490;52.086;5.122;2023-04-29T12:58:45;18.59;43.97
78212;SHT31;67490;52.086;5.122;2023-04-29T13:01:30;18.51;50.84
78212;SHT31;67490;52.086;5.122;2023-04-29T13:04:17;18.76;44.69
78212;SHT31;67490;52.086;5.122;2023-04-29T13:07:01;18.96;43.70
78212;SHT31;67490;52.086;5.122;2023-04-29T13:09:47;18.49;43.53
78212;SHT31;67490;52.086;5.122;2023-04-29T13:12:31;18.24;44.65
78212;SHT31;67490;52.086;5.122;2023-04-29T13:15:16;18.48;44.03
78212;SHT31;67490;52.086;5.122;2023-04-29T13:18:00;18.62;43.65
78212;SHT31;67490;52.086;5.122;2023-04-29T13:20:46;18.22;43.46
78212;SHT31;67490;52.086;5.122;2023-04-29T13:23:31;18.49;43.73
78212;SHT31;67490;52.086;5.122;2023-04-29T13:26:15;18.51;43.63
78212;SHT31;67490;52.086;5.122;2023-04-29T13:29:01;18.48;41.93
78212;SHT31;67490;52.086;5.122;2023-04-29T13:31:46;18.62;41.66
78212;SHT31;67490;52.086;5.122;2023-04-29T13:34:30;18.65;41.39
78212;SHT31;67490;52.086;5.122;2023-04-29T13:37:16;18.72;41.42
78212;SHT31;67490;52.086;5.122;2023-04-29T13:40:01;18.72;40.72
78212;SHT31;67490;52.086;5.122;2023-04-29T13:42:45;18.68;40.76
78212;SHT31;67490;52.086;5.122;2023-04-29T13:45:31;18.62;40.12
78212;SHT31;67490;52.086;5.122;2023-04-29T13:48:17;18.66;40.73
78212;SHT31;67490;52.086;5.122;2023-04-29T13:51:02;18.75;40.42
78212;SHT31;67490;52.086;5.122;2023-04-29T13:53:49;18.79;40.20
78212;SHT31;67490;52.086;5.122;2023-04-29T13:56:33;18.88;39.44
78212;SHT31;67490;52.086;5.122;2023-04-29T13:59:18;18.96;40.64
78212;SHT31;67490;52.086;5.122;2023-04-29T14:02:02;18.49;39.86
78212;SHT31;67490;52.086;5.122;2023-04-29T14:04:46;18.69;39.89
78212;SHT31;67490;52.086;5.122;2023-04-29T14:07:31;18.53;38.89
78212;SHT31;67490;52.086;5.122;2023-04-29T14:10:17;18.66;39.93
78212;SHT31;67490;52.086;5.122;2023-04-29T14:13:02;18.61;41.70
78212;SHT31;67490;52.086;5.122;2023-04-29T14:15:46;18.62;39.72
78212;SHT31;67490;52.086;5.122;2023-04-29T14:18:31;18.48;38.17
78212;SHT31;67490;52.086;5.122;2023-04-29T14:21:15;18.37;37.67
78212;SHT31;67490;52.086;5.122;2023-04-29T14:24:01;18.56;38.11
78212;SHT31;67490;52.086;5.122;2023-04-29T14:26:47;18.55;37.61
78212;SHT31;67490;52.086;5.122;2023-04-29T14:29:32;18.73;38.16
78212;SHT31;67490;52.086;5.122;2023-04-29T14:32:16;18.01;38.59
78212;SHT31;67490;52.086;5.122;2023-04-29T14:35:01;18.21;38.50
78212;SHT31;67490;52.086;5.122;2023-04-29T14:37:45;17.46;38.60
78212;SHT31;67490;52.086;5.122;2023-04-29T14:40:30;17.29;39.70
78212;SHT31;67490;52.086;5.122;2023-04-29T14:43:16;17.72;40.03
78212;SHT31;67490;52.086;5.122;2023-04-29T14:46:00;17.53;39.94
78212;SHT31;67490;52.086;5.122;2023-04-29T14:48:45;17.53;40.08
78212;SHT31;67490;52.086;5.122;2023-04-29T14:51:29;18.08;40.39
78212;SHT31;67490;52.086;5.122;2023-04-29T14:54:14;18.40;40.55
78212;SHT31;67490;52.086;5.122;2023-04-29T14:56:59;18.08;39.13
78212;SHT31;67490;52.086;5.122;2023-04-29T14:59:45;18.21;40.70
78212;SHT31;67490;52.086;5.122;2023-04-29T15:02:29;18.13;40.50
78212;SHT31;67490;52.086;5.122;2023-04-29T15:05:13;17.98;39.88
78212;SHT31;67490;52.086;5.122;2023-04-29T15:07:58;17.47;41.24
78212;SHT31;67490;52.086;5.122;2023-04-29T15:10:44;17.74;42.72
78212;SHT31;67490;52.086;5.122;2023-04-29T15:13:30;17.12;41.27
78212;SHT31;67490;52.086;5.122;2023-04-29T15:16:16;17.45;42.54
78212;SHT31;67490;52.086;5.122;2023-04-29T15:19:00;17.39;41.51
78212;SHT31;67490;52.086;5.122;2023-04-29T15:21:45;17.59;40.33
78212;SHT31;67490;52.086;5.122;2023-04-29T15:24:29;17.46;40.05
78212;SHT31;67490;52.086;5.122;2023-04-29T15:27:13;17.49;41.04
78212;SHT31;67490;52.086;5.122;2023-04-29T15:29:59;17.61;40.88
78212;SHT31;67490;52.086;5.122;2023-04-29T15:32:45;17.89;40.84
78212;SHT31;67490;52.086;5.122;2023-04-29T15:35:30;17.53;40.55
78212;SHT31;67490;52.086;5.122;2023-04-29T15:38:14;17.46;40.18
78212;SHT31;67490;52.086;5.122;2023-04-29T15:40:58;17.18;40.93
78212;SHT31;67490;52.086;5.122;2023-04-29T15:43:43;17.33;40.91
78212;SHT31;67490;52.086;5.122;2023-04-29T15:46:29;17.59;40.37
78212;SHT31;67490;52.086;5.122;2023-04-29T15:49:15;17.56;40.19
78212;SHT31;67490;52.086;5.122;2023-04-29T15:51:59;17.72;40.44
78212;SHT31;67490;52.086;5.122;2023-04-29T15:54:44;17.91;40.81
78212;SHT31;67490;52.086;5.122;2023-04-29T15:57:28;18.05;39.64
78212;SHT31;67490;52.086;5.122;2023-04-29T16:00:13;17.61;38.18
78212;SHT31;67490;52.086;5.122;2023-04-29T16:02:57;17.21;38.71
78212;SHT31;67490;52.086;5.122;2023-04-29T16:05:43;17.10;39.34
78212;SHT31;67490;52.086;5.122;2023-04-29T16:08:27;17.29;39.03
78212;SHT31;67490;52.086;5.122;2023-04-29T16:11:12;17.59;39.85
78212;SHT31;67490;52.086;5.122;2023-04-29T16:13:57;17.49;38.73
78212;SHT31;67490;52.086;5.122;2023-04-29T16:16:41;17.46;38.97
78212;SHT31;67490;52.086;5.122;2023-04-29T16:19:26;17.26;38.93
78212;SHT31;67490;52.086;5.122;2023-04-29T16:22:12;17.62;39.78
78212;SHT31;67490;52.086;5.122;2023-04-29T16:24:56;17.72;39.01
78212;SHT31;67490;52.086;5.122;2023-04-29T16:27:40;17.66;38.87
78212;SHT31;67490;52.086;5.122;2023-04-29T16:30:25;17.07;39.72
78212;SHT31;67490;52.086;5.122;2023-04-29T16:33:09;16.60;40.98
78212;SHT31;67490;52.086;5.122;2023-04-29T16:35:55;16.63;41.12
78212;SHT31;67490;52.086;5.122;2023-04-29T16:38:42;16.94;41.04
78212;SHT31;67490;52.086;5.122;2023-04-29T16:41:27;17.11;41.15
78212;SHT31;67490;52.086;5.122;2023-04-29T16:44:11;16.81;41.04
78212;SHT31;67490;52.086;5.122;2023-04-29T16:46:56;16.94;41.11
78212;SHT31;67490;52.086;5.122;2023-04-29T16:49:41;17.08;41.60
78212;SHT31;67490;52.086;5.122;2023-04-29T16:52:25;17.03;41.28
78212;SHT31;67490;52.086;5.122;2023-04-29T16:55:12;16.25;42.80
78212;SHT31;67490;52.086;5.122;2023-04-29T16:57:56;16.20;43.53
78212;SHT31;67490;52.086;5.122;2023-04-29T17:00:41;16.47;43.30
78212;SHT31;67490;52.086;5.122;2023-04-29T17:03:25;17.01;43.08
78212;SHT31;67490;52.086;5.122;2023-04-29T17:06:10;16.59;43.19
78212;SHT31;67490;52.086;5.122;2023-04-29T17:08:55;16.64;43.15
78212;SHT31;67490;52.086;5.122;2023-04-29T17:11:40;16.30;43.82
78212;SHT31;67490;52.086;5.122;2023-04-29T17:14:25;16.46;43.67
78212;SHT31;67490;52.086;5.122;2023-04-29T17:17:10;16.27;43.31
78212;SHT31;67490;52.086;5.122;2023-04-29T17:19:54;16.53;43.34
78212;SHT31;67490;52.086;5.122;2023-04-29T17:22:39;16.60;43.80
78212;SHT31;67490;52.086;5.122;2023-04-29T17:25:23;16.09;43.64
78212;SHT31;67490;52.086;5.122;2023-04-29T17:28:09;15.92;44.11